Time;durP1;ratioP1;P1;durP2;ratioP2;P2;SDS_P1;SDS_P2;PMS_P1;PMS_P2;Temp;Humidity;BMP_temperature;BMP_pressure;BME280_temperature;BME280_humidity;BME280_pressure;Samples;Min_cycle;Max_cycle;Signal;HPM_P1;HPM_P2
2022/10/25 00:00:26;;;;;;;48.75;15.70;;;11.00;99.90;;;;;;5046421;28;20128;-40
2022/10/25 00:02:52;;;;;;;38.05;16.63;;;11.30;99.90;;;;;;5046847;28;20407;-40
2022/10/25 00:05:17;;;;;;;35.40;17.33;;;11.30;99.90;;;;;;5044838;28;20060;-40
2022/10/25 00:07:43;;;;;;;34.95;17.08;;;11.10;99.90;;;;;;5046550;28;20047;-41
2022/10/25 00:10:09;;;;;;;41.42;17.48;;;11.50;99.90;;;;;;5046405;28;20041;-40
2022/10/25 00:12:40;;;;;;;39.83;17.48;;;11.20;99.90;;;;;;5046113;28;20048;-40
2022/10/25 00:15:06;;;;;;;43.17;17.88;;;10.80;99.90;;;;;;5046435;28;20049;-40
2022/10/25 00:17:32;;;;;;;38.85;17.92;;;10.80;99.90;;;;;;5045869;28;20063;-41
2022/10/25 00:19:58;;;;;;;42.40;18.50;;;10.80;99.90;;;;;;5046110;28;20040;-40
2022/10/25 00:22:23;;;;;;;52.20;19.80;;;11.60;99.90;;;;;;5045835;28;20059;-40
2022/10/25 00:24:49;;;;;;;47.78;20.15;;;11.10;99.90;;;;;;5045952;28;20045;-40
2022/10/25 00:27:15;;;;;;;40.35;18.77;;;11.00;99.90;;;;;;5045893;28;20049;-41
2022/10/25 00:29:40;;;;;;;59.83;21.98;;;11.20;99.90;;;;;;5046109;28;20045;-40
2022/10/25 00:32:06;;;;;;;53.67;20.77;;;11.60;99.90;;;;;;5046098;28;20068;-40
2022/10/25 00:34:32;;;;;;;36.58;19.38;;;11.50;99.90;;;;;;5045833;28;20045;-41
2022/10/25 00:36:57;;;;;;;46.45;21.42;;;11.20;99.90;;;;;;5046513;28;20051;-40
2022/10/25 00:39:23;;;;;;;38.90;20.05;;;10.80;99.90;;;;;;5045698;28;20045;-40
2022/10/25 00:41:49;;;;;;;51.15;21.63;;;11.20;99.90;;;;;;5044552;28;20083;-40
2022/10/25 00:44:39;;;;;;;51.67;20.75;;;11.50;99.90;;;;;;5044300;28;20045;-40
2022/10/25 00:47:20;;;;;;;47.33;20.88;;;10.70;99.90;;;;;;5045889;28;20606;-40
2022/10/25 00:49:56;;;;;;;66.05;23.00;;;11.20;99.90;;;;;;5046339;28;20063;-40
2022/10/25 00:52:22;;;;;;;47.08;22.13;;;10.90;99.90;;;;;;5045874;28;20127;-40
2022/10/25 00:54:50;;;;;;;62.78;23.52;;;11.30;99.90;;;;;;5045722;28;20045;-40
2022/10/25 00:57:30;;;;;;;59.15;23.65;;;10.90;99.90;;;;;;5045599;28;20040;-40
2022/10/25 00:59:56;;;;;;;52.58;23.75;;;10.90;99.90;;;;;;5045785;28;20049;-40
2022/10/25 01:02:22;;;;;;;47.72;23.65;;;11.60;99.90;;;;;;5046667;28;20041;-40
2022/10/25 01:04:49;;;;;;;52.15;22.80;;;11.40;99.90;;;;;;5049466;28;20427;-40
2022/10/25 01:07:14;;;;;;;47.08;23.67;;;11.00;99.90;;;;;;5049884;28;20081;-41
2022/10/25 01:09:41;;;;;;;59.42;24.90;;;11.60;99.90;;;;;;5047694;28;20068;-40
2022/10/25 01:12:07;;;;;;;61.88;23.95;;;11.70;99.90;;;;;;5049320;28;20102;-40
2022/10/25 01:14:35;;;;;;;50.58;23.52;;;11.60;99.90;;;;;;5048920;28;20044;-40
2022/10/25 01:17:15;;;;;;;60.38;24.02;;;12.00;99.90;;;;;;5049374;28;20045;-40
2022/10/25 01:20:05;;;;;;;64.03;24.60;;;12.00;99.90;;;;;;5048936;28;20505;-40
2022/10/25 01:22:56;;;;;;;50.83;22.23;;;11.50;99.90;;;;;;5048646;28;20521;-40
2022/10/25 01:26:03;;;;;;;47.53;21.53;;;11.50;99.90;;;;;;5048896;28;20083;-41
2022/10/25 01:29:06;;;;;;;40.25;20.35;;;11.60;99.90;;;;;;5045955;28;20688;-40
2022/10/25 01:31:42;;;;;;;45.58;21.92;;;11.60;99.90;;;;;;5045789;28;20059;-41
2022/10/25 01:34:16;;;;;;;39.10;20.83;;;11.60;99.90;;;;;;5048240;28;20047;-40
2022/10/25 01:37:00;;;;;;;60.10;22.88;;;12.00;99.90;;;;;;5048840;28;20179;-40
2022/10/25 01:39:31;;;;;;;52.65;22.92;;;11.70;99.90;;;;;;5048745;28;20051;-40
2022/10/25 01:42:05;;;;;;;41.27;20.77;;;11.70;99.90;;;;;;5049500;28;20052;-40
2022/10/25 01:44:55;;;;;;;40.08;20.27;;;11.70;99.90;;;;;;5048030;28;20048;-40
2022/10/25 01:47:31;;;;;;;49.85;20.90;;;11.70;99.90;;;;;;5049423;28;20114;-42
2022/10/25 01:50:00;;;;;;;51.08;23.98;;;12.80;99.90;;;;;;5048391;28;20436;-40
2022/10/25 01:52:29;;;;;;;48.67;22.75;;;12.10;99.90;;;;;;5047680;28;20383;-40
2022/10/25 01:54:55;;;;;;;48.95;20.13;;;12.20;99.90;;;;;;5049191;28;20491;-40
2022/10/25 01:57:33;;;;;;;33.53;20.08;;;12.20;99.90;;;;;;5049033;28;20091;-40
2022/10/25 02:00:19;;;;;;;40.53;20.83;;;12.10;99.90;;;;;;5048777;28;20052;-40
2022/10/25 02:03:06;;;;;;;41.15;20.67;;;11.90;99.90;;;;;;5048698;28;20440;-40
2022/10/25 02:05:35;;;;;;;41.28;21.02;;;11.90;99.90;;;;;;5048335;28;20441;-41
2022/10/25 02:08:21;;;;;;;39.55;18.90;;;12.80;99.90;;;;;;5048621;28;20477;-40
2022/10/25 02:10:52;;;;;;;44.38;20.70;;;12.00;99.90;;;;;;5048332;28;20404;-40
2022/10/25 02:13:49;;;;;;;48.07;21.70;;;12.00;99.90;;;;;;5048252;28;20098;-40
2022/10/25 02:16:22;;;;;;;48.35;19.67;;;12.00;99.90;;;;;;5048417;28;20087;-40
2022/10/25 02:18:52;;;;;;;42.55;19.88;;;12.40;99.90;;;;;;5048122;28;20059;-40
2022/10/25 02:21:19;;;;;;;49.80;19.52;;;12.10;99.90;;;;;;5048508;28;20114;-40
2022/10/25 02:23:47;;;;;;;60.67;23.13;;;12.50;99.90;;;;;;5048568;28;20138;-41
2022/10/25 02:26:14;;;;;;;59.65;20.95;;;12.50;99.90;;;;;;5048495;28;20060;-40
2022/10/25 02:28:40;;;;;;;54.08;20.35;;;12.00;99.90;;;;;;5048188;28;20511;-40
2022/10/25 02:31:11;;;;;;;64.45;21.30;;;12.00;99.90;;;;;;5048364;28;20805;-40
2022/10/25 02:33:37;;;;;;;53.40;20.00;;;12.90;99.90;;;;;;5047725;28;20102;-40
2022/10/25 02:36:07;;;;;;;63.30;22.17;;;12.40;99.90;;;;;;5048150;28;20041;-40
2022/10/25 02:38:33;;;;;;;45.75;20.63;;;12.00;99.90;;;;;;5048179;28;20045;-40
2022/10/25 02:41:01;;;;;;;49.70;21.73;;;12.10;99.90;;;;;;5048214;28;20053;-40
2022/10/25 02:43:27;;;;;;;52.72;20.80;;;12.10;99.90;;;;;;5048318;28;20476;-41
2022/10/25 02:45:52;;;;;;;66.70;21.92;;;12.00;99.90;;;;;;5047616;28;20047;-41
2022/10/25 02:48:18;;;;;;;50.33;20.08;;;12.40;99.90;;;;;;5048187;28;20045;-40
2022/10/25 02:50:44;;;;;;;45.28;18.50;;;12.10;99.90;;;;;;5047915;28;20040;-40
2022/10/25 02:53:09;;;;;;;50.05;19.88;;;12.40;99.90;;;;;;5048321;28;20043;-40
2022/10/25 02:55:35;;;;;;;51.13;20.50;;;12.70;99.90;;;;;;5047622;28;20048;-40
2022/10/25 02:58:00;;;;;;;43.35;19.00;;;12.40;99.90;;;;;;5047931;28;20040;-40
2022/10/25 03:00:28;;;;;;;57.05;19.63;;;12.10;99.90;;;;;;5047834;28;20452;-40
2022/10/25 03:02:54;;;;;;;50.17;19.73;;;12.60;99.90;;;;;;5047378;28;20128;-40
2022/10/25 03:05:19;;;;;;;44.53;19.88;;;12.50;99.90;;;;;;5047623;28;20163;-40
2022/10/25 03:07:45;;;;;;;46.67;19.25;;;12.00;99.90;;;;;;5047507;28;20448;-41
2022/10/25 03:10:11;;;;;;;41.78;18.10;;;12.60;99.90;;;;;;5047384;28;20509;-40
2022/10/25 03:12:36;;;;;;;46.03;18.85;;;12.40;99.90;;;;;;5047033;28;20033;-41
2022/10/25 03:15:02;;;;;;;45.00;18.20;;;12.60;99.90;;;;;;5047820;28;20037;-40
2022/10/25 03:17:28;;;;;;;51.22;19.13;;;12.20;99.90;;;;;;5047296;28;20040;-41
2022/10/25 03:19:53;;;;;;;43.75;18.10;;;12.50;99.90;;;;;;5046079;28;20379;-42
2022/10/25 03:22:19;;;;;;;60.75;20.23;;;12.60;99.90;;;;;;5046992;28;20487;-40
2022/10/25 03:24:45;;;;;;;49.30;18.85;;;12.10;99.90;;;;;;5046571;28;20467;-41
2022/10/25 03:27:10;;;;;;;42.17;17.48;;;12.50;99.90;;;;;;5046889;28;20545;-40
2022/10/25 03:29:36;;;;;;;43.30;18.15;;;12.20;99.90;;;;;;5046679;28;20137;-40
2022/10/25 03:32:04;;;;;;;42.83;18.17;;;12.60;99.90;;;;;;5046612;28;20071;-40
2022/10/25 03:34:30;;;;;;;60.17;19.30;;;12.50;99.90;;;;;;5046940;28;20049;-40
2022/10/25 03:36:56;;;;;;;61.08;20.52;;;12.20;99.90;;;;;;5046592;28;20045;-40
2022/10/25 03:39:22;;;;;;;40.38;17.67;;;12.20;99.90;;;;;;5046841;28;20044;-41
2022/10/25 03:41:48;;;;;;;49.03;18.85;;;12.40;99.90;;;;;;5046358;28;20037;-40
2022/10/25 03:44:13;;;;;;;40.78;17.17;;;12.40;99.90;;;;;;5046571;28;20115;-40
2022/10/25 03:46:39;;;;;;;55.15;18.75;;;12.30;99.90;;;;;;5046459;28;20037;-40
2022/10/25 03:49:05;;;;;;;40.13;16.30;;;12.30;99.90;;;;;;5046042;28;20048;-41
2022/10/25 03:51:30;;;;;;;46.55;16.88;;;12.30;99.90;;;;;;5046997;28;20491;-41
2022/10/25 03:53:56;;;;;;;49.58;18.65;;;11.80;99.90;;;;;;5046935;28;20467;-41
2022/10/25 03:56:22;;;;;;;47.28;18.45;;;12.30;99.90;;;;;;5045671;28;20045;-47
2022/10/25 03:58:48;;;;;;;52.28;19.15;;;11.70;99.90;;;;;;5059068;28;20053;-42
2022/10/25 04:01:13;;;;;;;37.28;16.45;;;11.80;99.90;;;;;;5026944;28;20084;-41
2022/10/25 04:03:39;;;;;;;35.05;16.20;;;11.60;99.90;;;;;;5037903;28;20112;-41
2022/10/25 04:06:05;;;;;;;46.88;17.23;;;11.80;99.90;;;;;;5039137;28;20107;-42
2022/10/25 04:08:30;;;;;;;44.47;17.05;;;11.70;99.90;;;;;;5038033;28;20068;-47
2022/10/25 04:10:56;;;;;;;44.13;16.98;;;11.70;99.90;;;;;;5038853;28;20041;-47
2022/10/25 04:13:22;;;;;;;42.47;16.33;;;12.30;99.90;;;;;;5038724;28;20055;-43
2022/10/25 04:15:47;;;;;;;43.15;16.55;;;12.10;99.90;;;;;;5038565;28;20352;-44
2022/10/25 04:18:13;;;;;;;35.97;15.70;;;11.60;99.90;;;;;;5038842;28;20056;-40
2022/10/25 04:20:39;;;;;;;37.25;16.08;;;11.80;99.90;;;;;;5038374;28;20075;-41
2022/10/25 04:23:04;;;;;;;41.70;16.67;;;11.80;99.90;;;;;;5039371;28;20082;-43
2022/10/25 04:25:30;;;;;;;54.55;17.75;;;11.90;99.90;;;;;;5039330;28;20095;-43
2022/10/25 04:27:58;;;;;;;42.30;16.77;;;12.00;99.90;;;;;;5046393;28;20095;-44
2022/10/25 04:30:23;;;;;;;62.78;19.90;;;11.90;99.90;;;;;;5046936;28;20076;-43
2022/10/25 04:32:49;;;;;;;37.33;15.98;;;11.70;99.90;;;;;;5046200;28;20092;-43
2022/10/25 04:35:15;;;;;;;50.90;18.17;;;11.80;99.90;;;;;;5046753;28;20060;-43
2022/10/25 04:37:40;;;;;;;54.85;17.40;;;12.20;99.90;;;;;;5047917;28;20055;-44
2022/10/25 04:40:07;;;;;;;50.63;17.50;;;12.00;99.90;;;;;;5048896;28;20049;-43
2022/10/25 04:42:33;;;;;;;40.25;16.55;;;11.60;99.90;;;;;;5050564;28;20530;-44
2022/10/25 04:44:59;;;;;;;55.72;18.30;;;12.00;99.90;;;;;;5050770;28;20049;-44
2022/10/25 04:47:24;;;;;;;38.85;15.50;;;11.80;99.90;;;;;;5051445;28;20106;-45
2022/10/25 04:49:50;;;;;;;40.88;16.20;;;11.80;99.90;;;;;;5050869;28;20045;-44
2022/10/25 04:52:16;;;;;;;40.33;15.23;;;11.30;99.90;;;;;;5049880;28;20045;-44
2022/10/25 04:54:42;;;;;;;41.00;15.88;;;11.80;99.90;;;;;;5050646;28;20064;-45
2022/10/25 04:57:07;;;;;;;56.80;18.98;;;12.00;99.90;;;;;;5050382;28;20048;-44
2022/10/25 04:59:33;;;;;;;34.80;17.40;;;11.50;99.90;;;;;;5050160;28;20056;-44
2022/10/25 05:01:59;;;;;;;44.17;17.70;;;11.80;99.90;;;;;;5049662;28;20064;-45
2022/10/25 05:04:24;;;;;;;49.70;17.95;;;11.30;99.90;;;;;;5050206;28;20049;-43
2022/10/25 05:06:50;;;;;;;39.92;17.77;;;11.70;99.90;;;;;;5049865;28;20047;-46
2022/10/25 05:09:15;;;;;;;79.00;19.08;;;11.60;99.90;;;;;;5050083;28;20484;-44
2022/10/25 05:11:41;;;;;;;57.15;19.23;;;11.60;99.90;;;;;;5050133;28;20510;-43
2022/10/25 05:14:07;;;;;;;48.10;18.02;;;11.80;99.90;;;;;;5049646;28;20075;-43
2022/10/25 05:16:34;;;;;;;63.83;18.02;;;11.50;99.90;;;;;;5049878;28;20041;-43
2022/10/25 05:19:00;;;;;;;59.33;18.63;;;11.50;99.90;;;;;;5050099;28;20044;-44
2022/10/25 05:21:29;;;;;;;45.58;19.25;;;11.90;99.90;;;;;;5050523;28;20053;-45
2022/10/25 05:23:59;;;;;;;63.03;20.23;;;11.10;99.90;;;;;;5081933;28;20412;-43
2022/10/25 05:26:25;;;;;;;62.75;20.05;;;11.40;99.90;;;;;;5049707;28;20045;-43
2022/10/25 05:28:52;;;;;;;43.72;17.83;;;11.30;99.90;;;;;;5049355;28;20056;-44
2022/10/25 05:31:22;;;;;;;57.55;20.20;;;11.60;99.90;;;;;;5049750;28;20106;-44
2022/10/25 05:33:50;;;;;;;73.78;20.85;;;11.40;99.90;;;;;;5043538;28;20038;-44
2022/10/25 05:36:16;;;;;;;50.13;18.80;;;11.40;99.90;;;;;;5029950;28;20125;-44
2022/10/25 05:38:41;;;;;;;67.13;21.45;;;11.80;99.90;;;;;;5029691;28;20508;-43
2022/10/25 05:41:09;;;;;;;45.28;19.20;;;11.60;99.90;;;;;;5029468;28;20091;-44
2022/10/25 05:43:35;;;;;;;68.05;19.83;;;11.40;99.90;;;;;;5029485;28;20041;-46
2022/10/25 05:46:06;;;;;;;49.97;18.38;;;11.10;99.90;;;;;;5029414;28;20044;-44
2022/10/25 05:48:32;;;;;;;80.97;20.40;;;12.00;99.90;;;;;;5029759;28;20116;-44
2022/10/25 05:51:11;;;;;;;36.30;17.48;;;11.40;99.90;;;;;;5029436;28;20049;-43
2022/10/25 05:53:42;;;;;;;32.72;16.85;;;11.10;99.90;;;;;;5029222;28;20041;-43
2022/10/25 05:56:07;;;;;;;58.30;18.42;;;11.50;99.90;;;;;;5028778;28;20131;-43
2022/10/25 05:58:33;;;;;;;69.57;18.42;;;11.40;99.90;;;;;;5029468;28;20084;-43
2022/10/25 06:00:59;;;;;;;67.88;20.30;;;11.60;99.90;;;;;;5029439;28;20479;-44
2022/10/25 06:03:25;;;;;;;57.13;18.27;;;11.20;99.90;;;;;;5029119;28;20156;-44
2022/10/25 06:05:51;;;;;;;58.45;18.02;;;11.50;99.90;;;;;;5029806;28;20052;-44
2022/10/25 06:08:16;;;;;;;38.75;16.48;;;11.20;99.90;;;;;;5029321;28;20056;-44
2022/10/25 06:10:42;;;;;;;55.78;17.48;;;11.60;99.90;;;;;;5029313;28;20041;-44
2022/10/25 06:13:08;;;;;;;36.97;16.33;;;11.20;99.90;;;;;;5029243;28;20046;-43
2022/10/25 06:15:37;;;;;;;55.17;17.98;;;11.60;99.90;;;;;;5044919;28;20060;-43
2022/10/25 06:18:03;;;;;;;34.63;14.75;;;11.30;99.90;;;;;;5048899;28;20048;-44
2022/10/25 06:20:28;;;;;;;41.00;16.33;;;11.30;99.90;;;;;;5048922;28;20064;-43
2022/10/25 06:22:54;;;;;;;52.63;16.20;;;11.50;99.90;;;;;;5048159;28;20192;-44
2022/10/25 06:25:19;;;;;;;55.97;16.33;;;11.30;99.90;;;;;;5047860;28;20048;-45
2022/10/25 06:27:45;;;;;;;57.00;16.63;;;11.70;99.90;;;;;;5048866;28;20044;-43
2022/10/25 06:30:11;;;;;;;34.38;14.80;;;11.70;99.90;;;;;;5048077;28;20044;-45
2022/10/25 06:32:37;;;;;;;33.22;13.85;;;11.40;99.90;;;;;;5048423;28;20064;-44
2022/10/25 06:35:03;;;;;;;36.78;14.90;;;12.10;99.90;;;;;;5048343;28;20085;-44
2022/10/25 06:37:29;;;;;;;36.85;14.40;;;11.50;99.90;;;;;;5048470;28;20055;-44
2022/10/25 06:39:55;;;;;;;39.72;15.27;;;11.90;99.90;;;;;;5048248;28;20041;-43
2022/10/25 06:42:20;;;;;;;35.75;16.23;;;11.50;99.90;;;;;;5048285;28;20510;-44
2022/10/25 06:44:46;;;;;;;45.67;16.60;;;11.90;99.90;;;;;;5046732;28;20045;-43
2022/10/25 06:47:11;;;;;;;55.13;16.05;;;11.90;99.90;;;;;;5048330;28;20041;-45
2022/10/25 06:49:37;;;;;;;48.97;16.10;;;12.00;99.90;;;;;;5048651;28;20473;-47
2022/10/25 06:52:03;;;;;;;37.80;14.15;;;11.90;99.90;;;;;;5046377;28;20037;-43
2022/10/25 06:54:28;;;;;;;38.33;15.27;;;11.60;99.90;;;;;;5048156;28;20048;-43
2022/10/25 06:56:54;;;;;;;54.08;16.40;;;11.70;99.90;;;;;;5048240;28;20041;-43
2022/10/25 06:59:20;;;;;;;35.65;14.55;;;11.70;99.90;;;;;;5046289;28;20053;-44
2022/10/25 07:01:46;;;;;;;58.33;16.00;;;12.10;99.90;;;;;;5047859;28;20818;-44
2022/10/25 07:04:12;;;;;;;35.17;14.05;;;11.70;99.90;;;;;;5047983;28;20044;-44
2022/10/25 07:06:38;;;;;;;52.50;16.00;;;12.30;99.90;;;;;;5048156;28;20087;-44
2022/10/25 07:09:04;;;;;;;36.60;14.07;;;12.50;99.90;;;;;;5048036;28;20041;-45
2022/10/25 07:11:31;;;;;;;35.17;14.18;;;11.80;99.90;;;;;;5048780;28;20077;-43
2022/10/25 07:13:59;;;;;;;37.22;14.88;;;12.10;99.90;;;;;;5047921;28;20051;-44
2022/10/25 07:16:26;;;;;;;56.22;15.35;;;11.80;99.90;;;;;;5047674;28;20049;-43
2022/10/25 07:18:56;;;;;;;44.42;14.48;;;12.20;99.90;;;;;;5047813;28;20147;-44
2022/10/25 07:21:22;;;;;;;40.05;13.48;;;12.40;99.90;;;;;;5047146;28;20579;-44
2022/10/25 07:23:49;;;;;;;47.20;15.15;;;12.40;99.90;;;;;;5047783;28;20028;-44
2022/10/25 07:26:19;;;;;;;35.13;13.07;;;12.30;99.90;;;;;;5047255;28;20053;-44
2022/10/25 07:28:47;;;;;;;45.53;14.00;;;12.00;99.90;;;;;;5047293;28;20044;-46
2022/10/25 07:31:21;;;;;;;40.53;14.75;;;12.00;99.90;;;;;;5047293;28;20472;-45
2022/10/25 07:33:48;;;;;;;44.95;14.60;;;12.00;99.90;;;;;;5046540;28;20138;-44
2022/10/25 07:36:14;;;;;;;35.65;14.07;;;12.10;99.90;;;;;;5033920;28;20447;-44
2022/10/25 07:38:40;;;;;;;36.00;13.27;;;12.30;99.90;;;;;;5030910;28;20104;-43
2022/10/25 07:41:07;;;;;;;29.75;13.25;;;12.30;99.90;;;;;;5027066;28;20053;-43
2022/10/25 07:43:33;;;;;;;36.70;13.18;;;12.70;99.90;;;;;;5025972;28;20137;-44
2022/10/25 07:45:59;;;;;;;39.85;13.65;;;12.50;99.90;;;;;;5025748;28;20045;-44
2022/10/25 07:48:25;;;;;;;33.60;13.10;;;12.60;99.90;;;;;;5026788;28;20382;-44
2022/10/25 07:50:51;;;;;;;32.40;13.10;;;12.60;99.90;;;;;;5027691;28;20489;-44
2022/10/25 07:53:17;;;;;;;37.58;14.48;;;12.70;99.90;;;;;;5036654;28;20043;-44
2022/10/25 07:55:48;;;;;;;39.17;13.40;;;13.40;99.90;;;;;;5047860;28;20048;-43
2022/10/25 07:58:13;;;;;;;33.15;13.68;;;12.80;99.90;;;;;;5045611;28;20404;-45
2022/10/25 08:00:39;;;;;;;36.47;13.85;;;12.90;99.90;;;;;;5019807;28;20049;-43
2022/10/25 08:03:05;;;;;;;30.42;12.00;;;13.00;99.90;;;;;;5043495;28;20041;-43
2022/10/25 08:05:31;;;;;;;37.65;14.23;;;13.00;99.90;;;;;;5043704;28;20132;-44
2022/10/25 08:07:56;;;;;;;31.63;12.38;;;13.10;99.90;;;;;;5044361;28;20060;-44
2022/10/25 08:10:22;;;;;;;28.38;13.35;;;13.00;99.90;;;;;;5044069;28;20770;-43
2022/10/25 08:12:49;;;;;;;32.05;11.93;;;;;;;;;;5046028;28;20049;-41
2022/10/25 08:15:56;;;;;;;33.87;12.37;;;13.10;99.90;;;;;;5095967;27;1957259;-45
2022/10/25 08:18:23;;;;;;;33.97;13.02;;;13.20;99.90;;;;;;5143377;27;20284;-45
2022/10/25 08:20:49;;;;;;;36.30;14.18;;;13.30;99.90;;;;;;5103841;28;20447;-44
2022/10/25 08:23:15;;;;;;;31.55;13.45;;;13.30;99.90;;;;;;5122598;28;20102;-44
2022/10/25 08:25:41;;;;;;;31.00;12.65;;;13.30;99.90;;;;;;5122950;28;20039;-43
2022/10/25 08:28:06;;;;;;;32.00;12.32;;;13.30;99.90;;;;;;5121984;28;20054;-43
2022/10/25 08:30:33;;;;;;;36.42;12.27;;;13.70;99.90;;;;;;5122704;28;20043;-43
2022/10/25 08:32:59;;;;;;;28.48;11.35;;;13.70;99.90;;;;;;5122770;28;20043;-42
2022/10/25 08:35:24;;;;;;;22.15;10.43;;;13.40;99.90;;;;;;5122422;28;20040;-44
2022/10/25 08:37:50;;;;;;;23.25;11.63;;;13.50;99.90;;;;;;5122971;28;20039;-43
2022/10/25 08:40:45;;;;;;;27.23;11.77;;;13.70;99.90;;;;;;5122389;28;20043;-43
2022/10/25 08:43:51;;;;;;;32.13;12.38;;;13.70;99.90;;;;;;5121614;28;20043;-44
2022/10/25 08:46:26;;;;;;;18.42;10.07;;;13.70;99.90;;;;;;5103766;28;20077;-45
2022/10/25 08:49:16;;;;;;;22.67;10.82;;;13.60;99.90;;;;;;5122378;28;20047;-45
2022/10/25 08:51:45;;;;;;;22.75;12.60;;;13.70;99.90;;;;;;5121971;28;20043;-44
2022/10/25 08:54:25;;;;;;;18.48;12.00;;;13.70;99.90;;;;;;5121978;28;20138;-45
2022/10/25 08:56:59;;;;;;;23.08;10.48;;;13.70;99.90;;;;;;5122408;28;20040;-43
2022/10/25 08:59:31;;;;;;;24.70;11.98;;;13.80;99.90;;;;;;5121980;28;20043;-47
2022/10/25 09:01:58;;;;;;;31.02;10.98;;;13.80;99.90;;;;;;5068443;28;20060;-44
2022/10/25 09:04:24;;;;;;;24.15;10.63;;;14.30;99.90;;;;;;5080595;28;20051;-44
2022/10/25 09:07:25;;;;;;;22.60;11.85;;;13.90;99.90;;;;;;5081374;28;20048;-46
2022/10/25 09:10:07;;;;;;;24.00;10.35;;;14.00;99.90;;;;;;5079176;28;20092;-44
2022/10/25 09:12:53;;;;;;;;;;;14.10;99.90;;;;;;5081906;28;20374;-45
2022/10/25 09:15:41;;;;;;;23.95;10.32;;;14.00;99.90;;;;;;5049441;28;19989;-46
2022/10/25 09:18:15;;;;;;;20.00;10.15;;;13.90;99.90;;;;;;5081145;28;20058;-45
2022/10/25 09:20:50;;;;;;;19.75;10.30;;;13.80;99.90;;;;;;5080883;28;20063;-46
2022/10/25 09:23:29;;;;;;;17.90;8.15;;;13.70;99.90;;;;;;5079745;28;20653;-45
2022/10/25 09:26:11;;;;;;;21.58;9.70;;;13.50;99.90;;;;;;5075958;28;20044;-44
2022/10/25 09:29:00;;;;;;;17.30;9.52;;;13.50;99.90;;;;;;5069762;28;20553;-45
2022/10/25 09:31:26;;;;;;;13.85;7.47;;;13.40;99.90;;;;;;5069998;28;20040;-44
2022/10/25 09:33:59;;;;;;;15.93;6.55;;;13.30;99.90;;;;;;5063150;28;20084;-46
2022/10/25 09:36:28;;;;;;;13.32;7.03;;;13.30;99.90;;;;;;5049642;28;20041;-44
2022/10/25 09:38:58;;;;;;;15.70;7.35;;;13.40;99.90;;;;;;5051141;28;20040;-44
2022/10/25 09:41:38;;;;;;;18.30;8.38;;;13.40;99.90;;;;;;5050198;28;20045;-45
2022/10/25 09:44:04;;;;;;;12.30;6.63;;;13.50;99.90;;;;;;5049274;28;20406;-43
2022/10/25 09:46:40;;;;;;;18.13;7.70;;;13.60;99.90;;;;;;5050417;28;20048;-43
2022/10/25 09:49:25;;;;;;;19.33;7.60;;;13.70;99.90;;;;;;5050103;28;20045;-44
2022/10/25 09:52:09;;;;;;;14.50;7.20;;;13.70;99.90;;;;;;5050080;28;20043;-45
2022/10/25 09:54:45;;;;;;;17.00;6.55;;;13.90;99.90;;;;;;5049628;28;20080;-43
2022/10/25 09:57:11;;;;;;;17.58;7.38;;;13.90;99.90;;;;;;5049717;28;20052;-45
2022/10/25 09:59:36;;;;;;;13.30;6.88;;;14.00;99.90;;;;;;5048129;28;20040;-45
2022/10/25 10:02:02;;;;;;;12.73;6.32;;;14.10;99.90;;;;;;5049536;28;20037;-45
2022/10/25 10:04:37;;;;;;;12.45;6.50;;;14.20;99.90;;;;;;5049428;28;20134;-44
2022/10/25 10:07:10;;;;;;;18.40;6.75;;;14.30;99.90;;;;;;5049281;28;20502;-46
2022/10/25 10:09:40;;;;;;;15.07;6.78;;;14.30;99.90;;;;;;5049050;28;20072;-45
2022/10/25 10:12:37;;;;;;;16.38;5.70;;;14.40;99.90;;;;;;5038965;28;20136;-43
2022/10/25 10:15:17;;;;;;;13.48;6.47;;;14.50;99.90;;;;;;5040525;28;20053;-44
2022/10/25 10:17:42;;;;;;;10.32;4.90;;;14.80;99.90;;;;;;5029057;28;20056;-45
2022/10/25 10:20:15;;;;;;;12.20;4.95;;;15.00;99.90;;;;;;5029168;28;20041;-44
2022/10/25 10:22:50;;;;;;;10.30;4.68;;;15.30;99.90;;;;;;5029008;28;20049;-43
2022/10/25 10:25:23;;;;;;;11.00;4.40;;;15.30;99.90;;;;;;5029366;28;20053;-44
2022/10/25 10:27:52;;;;;;;18.45;5.18;;;15.30;99.90;;;;;;5029476;28;20041;-45
2022/10/25 10:30:29;;;;;;;13.20;4.72;;;15.50;99.90;;;;;;5028656;28;20064;-44
2022/10/25 10:33:00;;;;;;;12.77;3.83;;;15.60;99.90;;;;;;5028543;28;20056;-44
2022/10/25 10:35:34;;;;;;;15.82;3.90;;;15.50;99.90;;;;;;5048273;28;20056;-44
2022/10/25 10:38:27;;;;;;;7.55;3.40;;;15.50;99.90;;;;;;5047458;28;20482;-44
2022/10/25 10:41:13;;;;;;;11.93;3.90;;;15.40;99.90;;;;;;5047266;28;20080;-43
2022/10/25 10:43:39;;;;;;;8.82;3.00;;;15.40;99.90;;;;;;5048743;28;20036;-44
2022/10/25 10:46:09;;;;;;;11.23;3.08;;;15.60;99.90;;;;;;5048895;28;20123;-45
2022/10/25 10:48:40;;;;;;;10.98;3.45;;;15.70;99.90;;;;;;5046957;28;20045;-45
2022/10/25 10:51:06;;;;;;;12.85;3.53;;;15.90;99.90;;;;;;5048351;28;20037;-44
2022/10/25 10:53:32;;;;;;;8.30;3.13;;;16.40;99.90;;;;;;5047862;28;20041;-45
2022/10/25 10:56:02;;;;;;;9.88;2.90;;;16.00;99.90;;;;;;5048015;28;20072;-45
2022/10/25 10:58:30;;;;;;;14.23;4.68;;;16.10;99.90;;;;;;5048089;28;20041;-44
2022/10/25 11:00:59;;;;;;;9.30;2.88;;;16.10;99.90;;;;;;5048516;28;20067;-45
2022/10/25 11:03:40;;;;;;;10.98;2.70;;;16.00;99.90;;;;;;5048230;28;20169;-44
2022/10/25 11:06:27;;;;;;;10.82;2.95;;;16.10;99.90;;;;;;5048198;28;20470;-45
2022/10/25 11:09:11;;;;;;;11.70;1.90;;;16.00;99.90;;;;;;5039811;28;20073;-44
2022/10/25 11:11:38;;;;;;;5.70;1.77;;;15.90;99.90;;;;;;5046250;28;20033;-43
2022/10/25 11:14:19;;;;;;;7.90;1.73;;;15.80;99.90;;;;;;5033624;28;20053;-43
2022/10/25 11:17:03;;;;;;;7.75;2.65;;;15.70;99.90;;;;;;5041315;28;20046;-44
2022/10/25 11:20:00;;;;;;;8.68;1.95;;;15.40;99.90;;;;;;5033375;28;20056;-46
2022/10/25 11:22:40;;;;;;;4.95;1.70;;;15.30;99.90;;;;;;5030852;28;20049;-44
2022/10/25 11:25:06;;;;;;;7.50;2.05;;;15.10;99.90;;;;;;5030643;28;20121;-43
2022/10/25 11:27:53;;;;;;;9.98;1.85;;;15.30;99.90;;;;;;5030843;28;20128;-44
2022/10/25 11:30:21;;;;;;;8.95;2.17;;;15.60;99.90;;;;;;5033087;28;20041;-44
2022/10/25 11:33:05;;;;;;;8.45;1.83;;;15.80;99.90;;;;;;5031433;28;20033;-45
2022/10/25 11:35:54;;;;;;;5.18;1.27;;;15.80;99.90;;;;;;5028081;28;20033;-44
2022/10/25 11:38:34;;;;;;;4.80;1.42;;;15.70;99.90;;;;;;5031267;28;20191;-45
2022/10/25 11:41:00;;;;;;;8.45;2.17;;;15.40;99.90;;;;;;5027089;28;20041;-44
2022/10/25 11:43:55;;;;;;;9.55;1.80;;;15.20;99.90;;;;;;5037084;28;20625;-44
2022/10/25 11:46:51;;;;;;;8.98;2.22;;;15.20;99.90;;;;;;5043193;28;20049;-45
2022/10/25 11:49:57;;;;;;;11.43;2.38;;;15.30;99.90;;;;;;5032831;28;20045;-43
2022/10/25 11:52:44;;;;;;;10.10;2.15;;;15.40;99.90;;;;;;5032820;28;20037;-44
2022/10/25 11:55:43;;;;;;;5.72;1.27;;;15.60;99.90;;;;;;5033495;28;20123;-43
2022/10/25 11:58:47;;;;;;;7.68;1.88;;;15.60;99.90;;;;;;5032424;28;20120;-44
2022/10/25 12:01:28;;;;;;;6.93;1.70;;;15.50;99.90;;;;;;5037186;28;20037;-45
2022/10/25 12:04:27;;;;;;;9.13;2.83;;;15.40;99.90;;;;;;5028503;28;20130;-44
2022/10/25 12:07:18;;;;;;;9.88;2.70;;;15.40;99.90;;;;;;5031849;28;20110;-44
2022/10/25 12:10:09;;;;;;;8.00;2.30;;;15.30;99.90;;;;;;5044144;28;20091;-43
2022/10/25 12:13:02;;;;;;;7.85;1.95;;;15.30;99.90;;;;;;5032805;28;20068;-43
2022/10/25 12:15:30;;;;;;;;;;;15.30;99.90;;;;;;5034400;28;20110;-44
2022/10/25 12:17:57;;;;;;;4.93;1.80;;;15.30;99.90;;;;;;5034059;28;19945;-44
2022/10/25 12:20:26;;;;;;;7.75;1.70;;;15.40;99.90;;;;;;5031986;28;20041;-43
2022/10/25 12:22:56;;;;;;;5.60;2.17;;;15.40;99.90;;;;;;5027732;28;20613;-43
2022/10/25 12:25:57;;;;;;;8.50;2.38;;;15.40;99.90;;;;;;5031666;28;20921;-44
2022/10/25 12:28:39;;;;;;;13.70;3.08;;;15.30;99.90;;;;;;5027489;28;20544;-44
2022/10/25 12:31:26;;;;;;;8.25;1.70;;;15.20;99.90;;;;;;5032317;28;20084;-45
2022/10/25 12:34:10;;;;;;;14.48;2.00;;;15.10;99.90;;;;;;5019408;28;20145;-43
2022/10/25 12:36:46;;;;;;;6.13;1.95;;;15.00;99.90;;;;;;5043824;28;20123;-44
2022/10/25 12:39:18;;;;;;;9.75;2.00;;;14.80;99.90;;;;;;5036746;28;20059;-49
2022/10/25 12:41:46;;;;;;;;;;;14.80;99.90;;;;;;5034167;28;20463;-45
2022/10/25 12:44:47;;;;;;;6.75;1.85;;;14.90;99.90;;;;;;5040996;28;19924;-43
2022/10/25 12:47:33;;;;;;;8.88;2.53;;;15.00;99.90;;;;;;5039986;28;20044;-43
2022/10/25 12:50:01;;;;;;;9.55;2.13;;;15.20;99.90;;;;;;5044882;28;20600;-45
2022/10/25 12:52:40;;;;;;;8.05;1.55;;;15.30;99.90;;;;;;5043604;28;20037;-44